Time;durP1;ratioP1;P1;durP2;ratioP2;P2;SDS_P1;SDS_P2;PMS_P1;PMS_P2;Temp;Humidity;BMP_temperature;BMP_pressure;BME280_temperature;BME280_humidity;BME280_pressure;Samples;Min_cycle;Max_cycle;Signal;HPM_P1;HPM_P2
2022/01/01 00:00:34;;;;;;;73.90;49.55;;;13.40;99.90;;;;;;5071917;28;20033;-62
2022/01/01 00:03:00;;;;;;;61.05;42.70;;;13.40;99.90;;;;;;5070419;28;20036;-62
2022/01/01 00:05:26;;;;;;;59.50;40.53;;;13.40;99.90;;;;;;5071922;28;20029;-62
2022/01/01 00:07:52;;;;;;;55.65;34.95;;;13.40;99.90;;;;;;5072173;28;20029;-62
2022/01/01 00:10:19;;;;;;;44.10;29.35;;;13.40;99.90;;;;;;5070629;28;20542;-63
2022/01/01 00:12:46;;;;;;;45.47;28.35;;;13.40;99.90;;;;;;5071891;28;20024;-62
2022/01/01 00:15:12;;;;;;;42.05;27.48;;;13.40;99.90;;;;;;5079017;28;20131;-62
2022/01/01 00:17:38;;;;;;;40.00;25.35;;;13.40;99.90;;;;;;5091684;28;20104;-62
2022/01/01 00:20:04;;;;;;;54.28;29.33;;;13.40;99.90;;;;;;5091961;28;20032;-62
2022/01/01 00:22:30;;;;;;;43.22;29.27;;;13.40;99.90;;;;;;5091966;28;20099;-63
2022/01/01 00:24:55;;;;;;;49.38;29.65;;;13.40;99.90;;;;;;5073364;28;20127;-62
2022/01/01 00:27:21;;;;;;;44.85;27.65;;;13.40;99.90;;;;;;5091638;28;20020;-63
2022/01/01 00:29:46;;;;;;;42.83;28.35;;;13.40;99.90;;;;;;5066670;28;20074;-62
2022/01/01 00:32:12;;;;;;;41.58;26.42;;;13.40;99.90;;;;;;5071519;28;20031;-62
2022/01/01 00:34:37;;;;;;;41.00;28.58;;;13.40;99.90;;;;;;5071300;28;20395;-63
2022/01/01 00:37:04;;;;;;;51.80;30.30;;;13.40;99.90;;;;;;5071512;28;20578;-63
2022/01/01 00:39:30;;;;;;;54.30;32.22;;;13.40;99.90;;;;;;5071646;28;20055;-62
2022/01/01 00:41:55;;;;;;;45.72;29.45;;;13.40;99.90;;;;;;5053239;28;20056;-62
2022/01/01 00:44:21;;;;;;;48.65;26.30;;;13.40;99.90;;;;;;5071152;28;20024;-62
2022/01/01 00:46:46;;;;;;;45.80;26.52;;;13.40;99.90;;;;;;5053062;28;20368;-63
2022/01/01 00:49:12;;;;;;;48.03;27.02;;;13.40;99.90;;;;;;5071139;28;20074;-63
2022/01/01 00:51:37;;;;;;;38.95;26.13;;;13.40;99.90;;;;;;5070068;28;20032;-62
2022/01/01 00:54:03;;;;;;;42.38;25.08;;;13.40;99.90;;;;;;5081116;28;20080;-62
2022/01/01 00:56:28;;;;;;;40.55;23.08;;;13.40;99.90;;;;;;5093514;28;20505;-62
2022/01/01 00:58:54;;;;;;;36.35;24.80;;;13.40;99.90;;;;;;5094124;28;20066;-62
2022/01/01 01:01:19;;;;;;;46.33;26.70;;;13.40;99.90;;;;;;5114140;28;20028;-62
2022/01/01 01:03:54;;;;;;;45.17;27.05;;;13.40;99.90;;;;;;5113968;28;20031;-62
2022/01/01 01:06:20;;;;;;;50.10;30.77;;;13.40;99.90;;;;;;5113926;28;20042;-62
2022/01/01 01:08:45;;;;;;;49.88;29.27;;;13.40;99.90;;;;;;5114388;28;20466;-62
2022/01/01 01:11:11;;;;;;;50.00;30.17;;;13.40;99.90;;;;;;5114264;28;20039;-62
2022/01/01 01:13:44;;;;;;;43.97;28.05;;;13.40;99.90;;;;;;5092339;28;20036;-62
2022/01/01 01:16:09;;;;;;;47.78;29.38;;;13.40;99.90;;;;;;5073554;28;20510;-62
2022/01/01 01:18:35;;;;;;;44.72;29.00;;;13.30;99.90;;;;;;5073761;28;20099;-62
2022/01/01 01:21:00;;;;;;;52.97;30.27;;;13.40;99.90;;;;;;5073392;28;20481;-62
2022/01/01 01:23:26;;;;;;;46.40;30.05;;;13.30;99.90;;;;;;5073788;28;20037;-62
2022/01/01 01:25:54;;;;;;;54.17;32.20;;;13.30;99.90;;;;;;5073364;28;20138;-62
2022/01/01 01:28:20;;;;;;;49.67;31.83;;;13.30;99.90;;;;;;5073429;28;20187;-62
2022/01/01 01:30:46;;;;;;;49.38;31.77;;;13.40;99.90;;;;;;5055524;28;20507;-62
2022/01/01 01:33:12;;;;;;;47.55;31.27;;;13.30;99.90;;;;;;5073515;28;20035;-62
2022/01/01 01:35:38;;;;;;;47.67;32.88;;;13.30;99.90;;;;;;5073033;28;20020;-62
2022/01/01 01:38:04;;;;;;;57.97;36.63;;;13.30;99.90;;;;;;5073240;28;20510;-62
2022/01/01 01:40:30;;;;;;;52.08;35.60;;;13.40;99.90;;;;;;5073279;28;20025;-62
2022/01/01 01:42:55;;;;;;;55.30;35.20;;;13.30;99.90;;;;;;5073195;28;20035;-62
2022/01/01 01:45:23;;;;;;;51.58;33.08;;;13.30;99.90;;;;;;5072916;28;20032;-62
2022/01/01 01:47:50;;;;;;;50.63;31.92;;;13.30;99.90;;;;;;5073160;28;20032;-62
2022/01/01 01:50:17;;;;;;;46.15;29.98;;;13.30;99.90;;;;;;5055143;28;20028;-62
2022/01/01 01:52:51;;;;;;;48.67;29.50;;;13.30;99.90;;;;;;5073007;28;20493;-62
2022/01/01 01:55:17;;;;;;;51.65;32.33;;;13.30;99.90;;;;;;5072816;28;20021;-62
2022/01/01 01:57:42;;;;;;;42.55;28.23;;;13.30;99.90;;;;;;5072843;28;20063;-62
2022/01/01 02:00:44;;;;;;;52.25;31.15;;;13.30;99.90;;;;;;5072807;28;20048;-62
2022/01/01 02:03:09;;;;;;;50.70;30.15;;;13.30;99.90;;;;;;5072659;28;20028;-62
2022/01/01 02:05:35;;;;;;;51.17;33.05;;;13.30;99.90;;;;;;5072702;28;20028;-62
2022/01/01 02:08:01;;;;;;;51.45;33.45;;;13.30;99.90;;;;;;5054607;28;20036;-62
2022/01/01 02:10:27;;;;;;;48.13;30.30;;;13.30;99.90;;;;;;5054680;28;20028;-62
2022/01/01 02:12:55;;;;;;;41.40;25.60;;;13.30;99.90;;;;;;5071929;28;20024;-62
2022/01/01 02:18:27;;;;;;;;;;;;;;;;;;;;;
2022/01/01 02:20:55;;;;;;;33.00;20.92;;;13.30;99.90;;;;;;5092509;28;20023;-62
2022/01/01 02:23:23;;;;;;;38.45;21.73;;;13.30;99.90;;;;;;5092442;28;20016;-62
2022/01/01 02:25:50;;;;;;;38.22;21.67;;;13.30;99.90;;;;;;5092188;28;20512;-62
2022/01/01 02:28:15;;;;;;;42.38;21.60;;;13.30;99.90;;;;;;5092488;28;20372;-62
2022/01/01 02:30:41;;;;;;;40.28;22.10;;;13.30;99.90;;;;;;5092642;28;20035;-62
2022/01/01 02:33:07;;;;;;;31.83;19.25;;;13.30;99.90;;;;;;5092346;28;20032;-62
2022/01/01 02:35:32;;;;;;;32.83;19.38;;;13.30;99.90;;;;;;5074316;28;20031;-62
2022/01/01 02:37:58;;;;;;;33.80;19.75;;;13.30;99.90;;;;;;5092239;28;20086;-62
2022/01/01 02:40:24;;;;;;;33.90;20.45;;;13.30;99.90;;;;;;5092369;28;20021;-62
2022/01/01 02:42:51;;;;;;;33.67;19.20;;;13.30;99.90;;;;;;5092296;28;20026;-62
2022/01/01 02:45:17;;;;;;;31.77;19.00;;;13.20;99.90;;;;;;5092145;28;20111;-62
2022/01/01 02:47:43;;;;;;;35.72;20.02;;;13.20;99.90;;;;;;5073988;28;20099;-62
2022/01/01 02:50:10;;;;;;;35.55;18.95;;;13.20;99.90;;;;;;5092146;28;20028;-62
2022/01/01 02:52:36;;;;;;;28.02;16.73;;;13.20;99.90;;;;;;5092095;28;20016;-62
2022/01/01 02:55:04;;;;;;;26.20;16.40;;;13.20;99.90;;;;;;5091896;28;20122;-62
2022/01/01 02:57:30;;;;;;;28.05;18.00;;;13.20;99.90;;;;;;5092053;28;20069;-62
2022/01/01 02:59:55;;;;;;;32.85;17.95;;;13.20;99.90;;;;;;5074036;28;20024;-62
2022/01/01 03:02:21;;;;;;;31.05;17.20;;;13.20;99.90;;;;;;5091877;28;20039;-62
2022/01/01 03:04:46;;;;;;;28.58;16.20;;;13.20;99.90;;;;;;5091900;28;20112;-62
2022/01/01 03:07:12;;;;;;;37.55;20.67;;;13.20;99.90;;;;;;5073731;28;20035;-62
2022/01/01 03:09:37;;;;;;;32.83;18.98;;;13.20;99.90;;;;;;5092027;28;20024;-62
2022/01/01 03:12:05;;;;;;;35.40;19.63;;;13.10;99.90;;;;;;5076632;28;20074;-62
2022/01/01 03:14:31;;;;;;;31.67;18.80;;;13.10;99.90;;;;;;5071477;28;20032;-62
2022/01/01 03:16:56;;;;;;;33.47;16.63;;;13.10;99.90;;;;;;5085242;28;20028;-62
2022/01/01 03:19:22;;;;;;;28.38;15.95;;;13.10;99.90;;;;;;5073802;28;20024;-62
2022/01/01 03:21:47;;;;;;;22.73;13.63;;;13.10;99.90;;;;;;5073782;28;20380;-62
2022/01/01 03:24:13;;;;;;;33.75;15.00;;;13.10;99.90;;;;;;5093262;28;20434;-62
2022/01/01 03:26:39;;;;;;;36.13;14.23;;;13.10;99.90;;;;;;5095692;28;20131;-62
2022/01/01 03:29:05;;;;;;;24.23;13.20;;;13.10;99.90;;;;;;5096139;28;20116;-62
2022/01/01 03:31:30;;;;;;;31.95;15.30;;;13.10;99.90;;;;;;5095715;28;20077;-62
2022/01/01 03:33:58;;;;;;;30.67;13.25;;;13.10;99.90;;;;;;5095835;28;20028;-62
2022/01/01 03:36:27;;;;;;;23.38;12.45;;;13.10;99.90;;;;;;5095756;28;20369;-62
2022/01/01 03:38:53;;;;;;;31.40;12.37;;;13.10;99.90;;;;;;5077566;28;20028;-62
2022/01/01 03:41:19;;;;;;;23.42;12.32;;;13.10;99.90;;;;;;5077533;28;20266;-62
2022/01/01 03:43:45;;;;;;;29.65;12.50;;;13.10;99.90;;;;;;5095517;28;20067;-62
2022/01/01 03:46:11;;;;;;;26.58;12.02;;;13.10;99.90;;;;;;5095404;28;20026;-62
2022/01/01 03:48:36;;;;;;;25.23;11.85;;;13.10;99.90;;;;;;5095546;28;20024;-62
2022/01/01 03:51:02;;;;;;;22.88;11.50;;;13.10;99.90;;;;;;5095644;28;20032;-62
2022/01/01 03:53:28;;;;;;;24.42;11.73;;;13.10;99.90;;;;;;5095498;28;20118;-62
2022/01/01 03:55:53;;;;;;;20.48;12.25;;;13.10;99.90;;;;;;5095362;28;20104;-62
2022/01/01 03:58:19;;;;;;;20.80;11.35;;;13.10;99.90;;;;;;5095452;28;20048;-62
2022/01/01 04:00:44;;;;;;;26.08;11.60;;;13.10;99.90;;;;;;5095284;28;20016;-62
2022/01/01 04:03:12;;;;;;;20.70;10.25;;;13.10;99.90;;;;;;5095269;28;20028;-62
2022/01/01 04:05:40;;;;;;;24.08;10.93;;;13.00;99.90;;;;;;5095188;28;20035;-62
2022/01/01 04:08:07;;;;;;;24.42;11.15;;;13.00;99.90;;;;;;5077008;28;20048;-62
2022/01/01 04:10:33;;;;;;;24.52;9.63;;;13.00;99.90;;;;;;5095024;28;20545;-62
2022/01/01 04:13:00;;;;;;;21.40;9.40;;;13.00;99.90;;;;;;5094901;28;20043;-62
2022/01/01 04:15:27;;;;;;;19.08;9.90;;;13.10;99.90;;;;;;5094867;28;20027;-62
2022/01/01 04:17:57;;;;;;;20.50;9.55;;;13.10;99.90;;;;;;5095051;28;20487;-62
2022/01/01 04:20:23;;;;;;;18.60;9.73;;;13.10;99.90;;;;;;5094381;28;20043;-62
2022/01/01 04:22:48;;;;;;;21.25;10.10;;;13.10;99.90;;;;;;5094927;28;20113;-62
2022/01/01 04:25:14;;;;;;;15.00;8.27;;;13.10;99.90;;;;;;5094439;28;20047;-62
2022/01/01 04:27:39;;;;;;;18.80;9.65;;;13.10;99.90;;;;;;5094689;28;20066;-62
2022/01/01 04:30:05;;;;;;;16.13;9.05;;;13.10;99.90;;;;;;5076618;28;20056;-62
2022/01/01 04:32:31;;;;;;;22.13;9.20;;;13.10;99.90;;;;;;5094722;28;20032;-62
2022/01/01 04:34:56;;;;;;;15.70;8.43;;;13.10;99.90;;;;;;5094388;28;20028;-62
2022/01/01 04:37:22;;;;;;;17.40;8.27;;;13.10;99.90;;;;;;5094181;28;20022;-62
2022/01/01 04:39:52;;;;;;;20.70;9.93;;;13.10;99.90;;;;;;5094427;28;20028;-62
2022/01/01 04:42:17;;;;;;;;;;;13.10;99.90;;;;;;5094858;28;20024;-62
2022/01/01 04:44:43;;;;;;;19.50;8.57;;;13.10;99.90;;;;;;5094413;28;19904;-62
2022/01/01 04:47:08;;;;;;;16.65;7.95;;;13.10;99.90;;;;;;5094440;28;20040;-62
2022/01/01 04:49:34;;;;;;;16.52;8.43;;;13.10;99.90;;;;;;5094352;28;20028;-62
2022/01/01 04:51:59;;;;;;;15.15;8.10;;;13.10;99.90;;;;;;5076246;28;20043;-62
2022/01/01 04:54:25;;;;;;;14.82;8.23;;;13.10;99.90;;;;;;5093938;28;20495;-62
2022/01/01 04:56:51;;;;;;;19.73;10.20;;;13.10;99.90;;;;;;5094058;28;20024;-62
2022/01/01 04:59:17;;;;;;;19.25;9.90;;;13.10;99.90;;;;;;5094348;28;20480;-62
2022/01/01 05:01:43;;;;;;;19.85;9.25;;;13.10;99.90;;;;;;5094188;28;20429;-62
2022/01/01 05:04:10;;;;;;;18.13;8.98;;;13.20;99.90;;;;;;5094127;28;20032;-62
2022/01/01 05:06:35;;;;;;;19.05;9.80;;;13.20;99.90;;;;;;5093957;28;20039;-62
2022/01/01 05:09:02;;;;;;;17.75;8.98;;;13.10;99.90;;;;;;5094095;28;20028;-62
2022/01/01 05:11:27;;;;;;;19.98;9.00;;;13.10;99.90;;;;;;5075494;28;20035;-62
2022/01/01 05:13:53;;;;;;;15.75;8.52;;;13.10;99.90;;;;;;5093816;28;20380;-62
2022/01/01 05:16:20;;;;;;;16.88;9.20;;;13.10;99.90;;;;;;5093942;28;20034;-62
2022/01/01 05:18:46;;;;;;;15.30;8.05;;;13.10;99.90;;;;;;5093748;28;20020;-62
2022/01/01 05:21:12;;;;;;;23.58;9.55;;;13.10;99.90;;;;;;5075595;28;20027;-62
2022/01/01 05:23:37;;;;;;;15.63;8.77;;;13.00;99.90;;;;;;5075771;28;20024;-62
2022/01/01 05:26:03;;;;;;;19.00;8.77;;;13.00;99.90;;;;;;5093325;28;20048;-62
2022/01/01 05:28:30;;;;;;;13.82;8.30;;;13.00;99.90;;;;;;5093532;28;20036;-62
2022/01/01 05:30:56;;;;;;;18.33;8.13;;;13.00;99.90;;;;;;5093626;28;20032;-62
2022/01/01 05:33:21;;;;;;;14.57;7.57;;;13.00;99.90;;;;;;5075295;28;20042;-62
2022/01/01 05:35:47;;;;;;;16.00;8.80;;;13.10;99.90;;;;;;5093381;28;20024;-62
2022/01/01 05:38:12;;;;;;;13.52;8.30;;;13.00;99.90;;;;;;5093436;28;20484;-62
2022/01/01 05:40:38;;;;;;;16.45;8.57;;;13.00;99.90;;;;;;5093131;28;20047;-62
2022/01/01 05:43:03;;;;;;;15.00;8.00;;;13.00;99.90;;;;;;5093474;28;20103;-62
2022/01/01 05:45:29;;;;;;;14.13;8.55;;;13.00;99.90;;;;;;5093143;28;20414;-62
2022/01/01 05:47:54;;;;;;;14.68;8.25;;;13.10;99.90;;;;;;5092289;28;20420;-62
2022/01/01 05:50:20;;;;;;;17.27;8.70;;;13.00;99.90;;;;;;5093232;28;20055;-62
2022/01/01 05:52:46;;;;;;;18.80;9.25;;;13.10;99.90;;;;;;5093147;28;20042;-62
2022/01/01 05:55:12;;;;;;;17.10;7.65;;;13.10;99.90;;;;;;5092969;28;20039;-62
2022/01/01 05:57:38;;;;;;;14.63;7.30;;;13.10;99.90;;;;;;5093028;28;20028;-62
2022/01/01 06:00:06;;;;;;;18.77;7.20;;;13.10;99.90;;;;;;5075023;28;20519;-62
2022/01/01 06:02:38;;;;;;;14.57;7.25;;;13.10;99.90;;;;;;5092957;28;20031;-62
2022/01/01 06:05:04;;;;;;;14.35;6.70;;;13.20;99.90;;;;;;5093272;28;20073;-62
2022/01/01 06:07:30;;;;;;;11.07;5.68;;;13.10;99.90;;;;;;5074728;28;20093;-62
2022/01/01 06:10:04;;;;;;;17.80;7.03;;;13.20;99.90;;;;;;5069254;28;20349;-61
2022/01/01 06:12:30;;;;;;;16.20;6.50;;;13.20;99.90;;;;;;5069093;28;20090;-61
2022/01/01 06:14:56;;;;;;;14.00;6.95;;;13.20;99.90;;;;;;5069117;28;20032;-61
2022/01/01 06:17:22;;;;;;;14.50;6.07;;;13.20;99.90;;;;;;5069080;28;20075;-61
2022/01/01 06:19:47;;;;;;;12.93;6.53;;;13.20;99.90;;;;;;5068964;28;20028;-61
2022/01/01 06:22:13;;;;;;;14.60;5.88;;;13.20;99.90;;;;;;5068934;28;20025;-61
2022/01/01 06:24:39;;;;;;;12.68;5.57;;;13.20;99.90;;;;;;5068913;28;20103;-61
2022/01/01 06:27:05;;;;;;;10.98;5.90;;;13.20;99.90;;;;;;5068858;28;20033;-61
2022/01/01 06:29:31;;;;;;;16.02;5.82;;;13.20;99.90;;;;;;5068793;28;20040;-61
2022/01/01 06:31:56;;;;;;;12.77;5.40;;;13.20;99.90;;;;;;5067626;28;20051;-61
2022/01/01 06:34:22;;;;;;;12.85;5.18;;;13.20;99.90;;;;;;5067520;28;20158;-61
2022/01/01 06:36:49;;;;;;;14.20;6.10;;;13.20;99.90;;;;;;5068553;28;20021;-61
2022/01/01 06:39:15;;;;;;;16.90;6.50;;;13.20;99.90;;;;;;5068911;28;20056;-61
2022/01/01 06:41:40;;;;;;;10.68;5.60;;;13.20;99.90;;;;;;5068511;28;20072;-61
2022/01/01 06:44:06;;;;;;;10.50;6.20;;;13.20;99.90;;;;;;5068576;28;20036;-61
2022/01/01 06:46:32;;;;;;;11.85;5.88;;;13.10;99.90;;;;;;5068526;28;20470;-61
2022/01/01 06:48:57;;;;;;;18.73;5.95;;;13.10;99.90;;;;;;5068363;28;20035;-61
2022/01/01 06:51:22;;;;;;;12.55;5.70;;;13.00;99.90;;;;;;5067013;28;20362;-61
2022/01/01 06:53:48;;;;;;;11.45;5.22;;;13.00;99.90;;;;;;5068393;28;20021;-61
2022/01/01 06:56:13;;;;;;;16.08;6.22;;;13.00;99.90;;;;;;5067991;28;20113;-61
2022/01/01 06:58:39;;;;;;;12.25;5.63;;;13.00;99.90;;;;;;5067890;28;20477;-61
2022/01/01 07:01:06;;;;;;;12.43;5.20;;;13.00;99.90;;;;;;5067392;28;20040;-61
2022/01/01 07:03:31;;;;;;;12.07;5.35;;;12.90;99.90;;;;;;5068087;28;20127;-62
2022/01/01 07:05:57;;;;;;;12.40;5.47;;;12.90;99.90;;;;;;5067976;28;20103;-61
2022/01/01 07:08:22;;;;;;;11.35;5.70;;;12.90;99.90;;;;;;5066687;28;20435;-61
2022/01/01 07:10:48;;;;;;;11.05;5.25;;;12.90;99.90;;;;;;5067575;28;20473;-61
2022/01/01 07:13:15;;;;;;;12.50;6.22;;;12.90;99.90;;;;;;5065997;28;20016;-61
2022/01/01 07:15:40;;;;;;;16.13;5.43;;;12.80;99.90;;;;;;5067830;28;20071;-63
2022/01/01 07:18:06;;;;;;;14.63;5.47;;;12.70;99.90;;;;;;5067839;28;20037;-63
2022/01/01 07:20:31;;;;;;;16.58;5.80;;;12.70;99.90;;;;;;5059250;28;20104;-63
2022/01/01 07:22:57;;;;;;;9.27;4.50;;;12.70;99.90;;;;;;5054603;28;20028;-63
2022/01/01 07:25:22;;;;;;;10.18;5.03;;;12.70;99.90;;;;;;5054570;28;20500;-63
2022/01/01 07:27:48;;;;;;;11.00;5.28;;;12.70;99.90;;;;;;5054295;28;20529;-63
2022/01/01 07:30:14;;;;;;;11.00;5.50;;;12.80;99.90;;;;;;5054500;28;20032;-64
2022/01/01 07:32:44;;;;;;;14.75;4.72;;;12.80;99.90;;;;;;5054449;28;20385;-61
2022/01/01 07:35:11;;;;;;;14.13;4.63;;;12.80;99.90;;;;;;5054265;28;20100;-61
2022/01/01 07:37:37;;;;;;;10.23;4.60;;;12.70;99.90;;;;;;5053044;28;20025;-61
2022/01/01 07:40:05;;;;;;;11.93;3.95;;;12.70;99.90;;;;;;5054291;28;20028;-61
2022/01/01 07:42:30;;;;;;;10.57;4.65;;;12.70;99.90;;;;;;5054037;28;20028;-61
2022/01/01 07:44:56;;;;;;;9.20;4.70;;;12.70;99.90;;;;;;5052767;28;20020;-61
2022/01/01 07:47:22;;;;;;;10.05;4.35;;;12.70;99.90;;;;;;5054154;28;20028;-61
2022/01/01 07:49:48;;;;;;;10.38;5.40;;;12.70;99.90;;;;;;5053861;28;20029;-61
2022/01/01 07:52:13;;;;;;;9.20;3.88;;;12.70;99.90;;;;;;5053015;28;20112;-61
2022/01/01 07:54:39;;;;;;;13.63;5.82;;;12.70;99.90;;;;;;5054003;28;20075;-61
2022/01/01 07:57:04;;;;;;;7.38;4.70;;;12.70;99.90;;;;;;5053998;28;20065;-61
2022/01/01 07:59:30;;;;;;;10.75;4.53;;;12.80;99.90;;;;;;5053744;28;20384;-61
2022/01/01 08:01:55;;;;;;;11.05;4.63;;;12.70;99.90;;;;;;5053954;28;20044;-61
2022/01/01 08:04:21;;;;;;;12.55;4.43;;;12.70;99.90;;;;;;5053495;28;20067;-61
2022/01/01 08:06:46;;;;;;;13.48;4.93;;;12.80;99.90;;;;;;5053658;28;20068;-61
2022/01/01 08:09:13;;;;;;;14.02;4.95;;;12.80;99.90;;;;;;5052221;28;20049;-61
2022/01/01 08:11:39;;;;;;;10.07;4.82;;;12.80;99.90;;;;;;5053929;28;20024;-61
2022/01/01 08:14:04;;;;;;;10.23;4.00;;;12.80;99.90;;;;;;5043962;28;20160;-61
2022/01/01 08:16:30;;;;;;;10.05;3.97;;;12.80;99.90;;;;;;5033591;28;20080;-61
2022/01/01 08:18:55;;;;;;;14.20;4.70;;;12.80;99.90;;;;;;5041519;28;20029;-61
2022/01/01 08:21:21;;;;;;;10.90;4.22;;;12.80;99.90;;;;;;5048971;28;20400;-61
2022/01/01 08:23:47;;;;;;;9.65;3.95;;;12.80;99.90;;;;;;5063104;28;20043;-61
2022/01/01 08:26:12;;;;;;;9.05;3.95;;;12.80;99.90;;;;;;5052052;28;20052;-61
2022/01/01 08:28:38;;;;;;;12.32;4.05;;;12.90;99.90;;;;;;5052972;28;20029;-61
2022/01/01 08:31:04;;;;;;;9.93;4.20;;;12.90;99.90;;;;;;5052792;28;20032;-61
2022/01/01 08:33:29;;;;;;;11.05;4.25;;;12.90;99.90;;;;;;5051743;28;20028;-61
2022/01/01 08:35:55;;;;;;;10.07;4.22;;;12.90;99.90;;;;;;5049289;28;20389;-61
2022/01/01 08:38:21;;;;;;;8.73;3.80;;;12.90;99.90;;;;;;5051901;28;20086;-61
2022/01/01 08:40:46;;;;;;;10.20;3.92;;;12.90;99.90;;;;;;5043542;28;20047;-61
2022/01/01 08:43:12;;;;;;;12.52;4.63;;;12.90;99.90;;;;;;5049158;28;20100;-61
2022/01/01 08:45:38;;;;;;;8.48;3.75;;;12.90;99.90;;;;;;5049376;28;20032;-61
2022/01/01 08:48:06;;;;;;;12.43;4.25;;;13.00;99.90;;;;;;5050782;28;20025;-61
2022/01/01 08:50:36;;;;;;;10.02;3.38;;;13.00;99.90;;;;;;5052692;28;20029;-63
2022/01/01 08:53:01;;;;;;;11.82;4.18;;;13.00;99.90;;;;;;5047344;28;20090;-63
2022/01/01 08:55:29;;;;;;;11.45;3.75;;;13.00;99.90;;;;;;5050699;28;20485;-63
2022/01/01 08:57:54;;;;;;;7.63;3.30;;;13.00;99.90;;;;;;5048928;28;20021;-63
2022/01/01 09:00:21;;;;;;;8.70;3.35;;;13.10;99.90;;;;;;5047322;28;20104;-63
2022/01/01 09:02:46;;;;;;;10.32;4.43;;;13.10;99.90;;;;;;5044315;28;20453;-63
2022/01/01 09:05:12;;;;;;;14.43;4.40;;;13.10;99.90;;;;;;5048779;28;20096;-63
2022/01/01 09:07:56;;;;;;;10.73;3.90;;;13.10;99.90;;;;;;5048477;28;20024;-63
2022/01/01 09:11:02;;;;;;;13.23;3.90;;;13.20;99.90;;;;;;5046570;28;20040;-63
2022/01/01 09:13:28;;;;;;;9.07;4.13;;;13.20;99.90;;;;;;5042591;28;20099;-63
2022/01/01 09:15:54;;;;;;;6.95;3.45;;;13.20;99.90;;;;;;5038135;28;20443;-63
2022/01/01 09:18:30;;;;;;;9.82;3.97;;;13.20;99.90;;;;;;5040392;28;20108;-63
2022/01/01 09:20:55;;;;;;;9.45;3.63;;;13.30;99.90;;;;;;5043497;28;20028;-63
2022/01/01 09:23:20;;;;;;;8.50;3.80;;;13.30;99.90;;;;;;5047758;28;20024;-63
2022/01/01 09:25:46;;;;;;;8.75;3.67;;;13.20;99.90;;;;;;5049175;28;20115;-63
2022/01/01 09:28:11;;;;;;;11.43;4.18;;;13.20;99.90;;;;;;5042976;28;20040;-63
2022/01/01 09:30:37;;;;;;;8.13;4.28;;;13.30;99.90;;;;;;5034517;28;20114;-61
2022/01/01 09:33:03;;;;;;;10.50;3.83;;;13.20;99.90;;;;;;5031512;28;20029;-61
2022/01/01 09:35:28;;;;;;;9.50;3.78;;;13.30;99.90;;;;;;5043497;28;20028;-61
2022/01/01 09:37:54;;;;;;;12.32;4.55;;;13.30;99.90;;;;;;5045541;28;20504;-61
2022/01/01 09:40:20;;;;;;;8.23;3.75;;;13.30;99.90;;;;;;5050455;28;20151;-61
2022/01/01 09:42:51;;;;;;;12.32;4.07;;;13.30;99.90;;;;;;5050575;28;20075;-61
2022/01/01 09:45:18;;;;;;;10.05;4.15;;;13.40;99.90;;;;;;5047867;28;20108;-63
2022/01/01 09:47:44;;;;;;;9.13;4.05;;;13.40;99.90;;;;;;5046311;28;20021;-61
2022/01/01 09:50:09;;;;;;;9.10;4.55;;;13.40;99.90;;;;;;5044824;28;20036;-61
2022/01/01 09:52:36;;;;;;;11.30;4.50;;;13.40;99.90;;;;;;5044510;28;20020;-61
2022/01/01 09:55:02;;;;;;;10.55;4.80;;;13.40;99.90;;;;;;5041838;28;20459;-61
2022/01/01 09:57:28;;;;;;;11.52;5.65;;;13.40;99.90;;;;;;5048521;28;20017;-61
2022/01/01 09:59:53;;;;;;;9.80;4.95;;;13.50;99.90;;;;;;5043003;28;20132;-61
2022/01/01 10:02:19;;;;;;;8.60;4.20;;;13.50;99.90;;;;;;5047021;28;20025;-61
2022/01/01 10:04:51;;;;;;;11.35;5.32;;;13.60;99.90;;;;;;5049810;28;20481;-61
2022/01/01 10:07:25;;;;;;;9.98;4.82;;;13.60;99.90;;;;;;5041517;28;20055;-61
2022/01/01 10:09:51;;;;;;;10.52;5.00;;;13.60;99.90;;;;;;5046198;28;20045;-61
2022/01/01 10:12:18;;;;;;;11.73;5.10;;;13.60;99.90;;;;;;5043508;28;20545;-61
2022/01/01 10:14:47;;;;;;;8.30;5.18;;;13.70;99.90;;;;;;5043797;28;20401;-61
2022/01/01 10:17:21;;;;;;;8.70;5.13;;;13.80;99.90;;;;;;5046125;28;20032;-61
2022/01/01 10:19:50;;;;;;;9.48;4.55;;;13.90;99.90;;;;;;5043848;28;20028;-61
2022/01/01 10:22:19;;;;;;;10.02;5.35;;;14.10;99.90;;;;;;5047478;28;20079;-61
2022/01/01 10:27:42;;;;;;;9.30;5.10;;;14.20;99.90;;;;;;5039128;28;19916;-61
2022/01/01 10:30:09;;;;;;;11.40;5.07;;;14.20;99.90;;;;;;5048391;28;20628;-60
2022/01/01 10:32:35;;;;;;;12.77;5.78;;;14.30;99.90;;;;;;5047264;28;20025;-61
2022/01/01 10:35:02;;;;;;;10.38;4.90;;;14.30;99.90;;;;;;5045843;28;20013;-61
2022/01/01 10:37:29;;;;;;;12.23;4.40;;;14.30;99.90;;;;;;5040900;28;20013;-61
2022/01/01 10:39:55;;;;;;;8.00;4.65;;;14.50;99.90;;;;;;5046992;28;20508;-61
2022/01/01 10:42:21;;;;;;;12.18;4.90;;;14.60;99.90;;;;;;5042557;28;20104;-61
2022/01/01 10:44:49;;;;;;;10.88;5.18;;;14.70;99.90;;;;;;5048097;28;20051;-61
2022/01/01 10:47:20;;;;;;;13.88;5.45;;;14.70;99.90;;;;;;5046991;28;20040;-61
2022/01/01 10:52:13;;;;;;;9.55;5.65;;;14.50;99.90;;;;;;5048981;28;20028;-61
2022/01/01 10:54:46;;;;;;;8.30;4.68;;;14.50;99.90;;;;;;5050763;28;20014;-61
2022/01/01 10:57:11;;;;;;;8.82;4.60;;;14.50;99.90;;;;;;5051125;28;20096;-61
2022/01/01 10:59:38;;;;;;;12.23;5.40;;;14.60;99.90;;;;;;5047086;28;20520;-61
2022/01/01 11:02:06;;;;;;;11.07;4.97;;;14.60;99.90;;;;;;5047949;28;20074;-61
2022/01/01 11:04:33;;;;;;;11.30;5.88;;;14.60;99.90;;;;;;5050009;28;20451;-61
2022/01/01 11:06:59;;;;;;;9.10;4.93;;;14.70;99.90;;;;;;5049324;28;20021;-61
2022/01/01 11:09:26;;;;;;;10.48;4.82;;;14.80;99.90;;;;;;5053233;28;20068;-61
2022/01/01 11:11:57;;;;;;;11.43;4.95;;;14.80;99.90;;;;;;5045347;28;20084;-61
2022/01/01 11:14:24;;;;;;;11.68;4.78;;;14.70;99.90;;;;;;5052402;28;20373;-61
2022/01/01 11:16:51;;;;;;;8.38;4.40;;;14.60;99.90;;;;;;5052657;28;20070;-61
2022/01/01 11:19:46;;;;;;;8.07;4.43;;;14.60;99.90;;;;;;5048772;28;20041;-61
2022/01/01 11:22:12;;;;;;;8.10;3.83;;;14.70;99.90;;;;;;5042625;28;20032;-61
2022/01/01 11:24:38;;;;;;;9.00;3.83;;;14.90;99.90;;;;;;5051398;28;20099;-61
2022/01/01 11:27:05;;;;;;;8.82;4.28;;;15.30;99.90;;;;;;5043009;28;20029;-61
2022/01/01 11:29:33;;;;;;;7.90;3.97;;;15.80;99.60;;;;;;5046519;28;20021;-61
2022/01/01 11:31:59;;;;;;;7.68;3.40;;;16.00;98.50;;;;;;5048476;28;20061;-61
2022/01/01 11:34:26;;;;;;;9.15;3.47;;;16.20;98.20;;;;;;5039607;28;20464;-61
2022/01/01 11:36:51;;;;;;;7.43;3.45;;;16.50;97.50;;;;;;5047800;28;20116;-60
2022/01/01 11:39:22;;;;;;;8.25;3.50;;;16.60;96.70;;;;;;5044872;28;20104;-61
2022/01/01 11:41:47;;;;;;;6.18;3.15;;;16.90;96.10;;;;;;5048445;28;20026;-61
2022/01/01 11:45:01;;;;;;;;;;;;;;;;;;;;;
2022/01/01 11:48:16;;;;;;;8.68;3.50;;;16.90;95.20;;;;;;5049276;28;20044;-61
2022/01/01 11:50:44;;;;;;;9.18;3.97;;;16.60;95.60;;;;;;5026496;28;20055;-61
2022/01/01 11:53:30;;;;;;;8.25;3.63;;;16.40;95.70;;;;;;5053966;28;20035;-61
2022/01/01 11:56:05;;;;;;;7.10;3.42;;;16.30;95.90;;;;;;5044344;28;20031;-61
2022/01/01 11:58:50;;;;;;;6.70;3.42;;;16.40;96.30;;;;;;5072262;28;20063;-62
2022/01/01 12:01:19;;;;;;;8.07;3.40;;;16.60;95.80;;;;;;5061323;28;20568;-61
2022/01/01 12:03:49;;;;;;;7.28;3.10;;;16.80;95.40;;;;;;5067543;28;20033;-62
2022/01/01 12:06:15;;;;;;;5.75;3.20;;;17.00;94.80;;;;;;5055346;28;20032;-61
2022/01/01 12:08:57;;;;;;;6.60;3.80;;;16.90;94.70;;;;;;5061228;28;20044;-61
2022/01/01 12:11:30;;;;;;;5.60;2.95;;;16.80;94.60;;;;;;5059346;28;20465;-61
2022/01/01 12:13:58;;;;;;;6.45;3.45;;;16.40;95.00;;;;;;5068229;28;20067;-61
2022/01/01 12:16:23;;;;;;;9.05;3.75;;;16.20;95.40;;;;;;5051100;28;20040;-61
2022/01/01 12:18:49;;;;;;;8.30;3.20;;;16.10;95.50;;;;;;5050338;28;20020;-61
2022/01/01 12:21:22;;;;;;;7.13;3.85;;;16.10;95.60;;;;;;5050439;28;20037;-61
2022/01/01 12:23:48;;;;;;;7.18;3.17;;;16.10;95.80;;;;;;5045227;28;20017;-61
2022/01/01 12:26:14;;;;;;;6.18;3.00;;;16.30;95.90;;;;;;5068280;28;20078;-61
2022/01/01 12:28:43;;;;;;;5.40;3.10;;;16.50;95.30;;;;;;5058414;28;20021;-61
2022/01/01 12:31:19;;;;;;;8.35;3.65;;;16.60;95.20;;;;;;5066511;28;20031;-61
2022/01/01 12:33:47;;;;;;;5.78;3.20;;;16.60;94.90;;;;;;5056004;28;20029;-61
2022/01/01 12:36:26;;;;;;;6.25;2.90;;;16.70;95.00;;;;;;5050306;28;20078;-61
2022/01/01 12:38:54;;;;;;;8.38;3.17;;;16.70;94.60;;;;;;5057944;28;20102;-62
2022/01/01 12:41:21;;;;;;;5.75;3.10;;;16.50;94.80;;;;;;5050631;28;20029;-63
2022/01/01 12:43:56;;;;;;;8.40;3.72;;;16.60;94.60;;;;;;5043503;28;20091;-63
2022/01/01 12:46:29;;;;;;;8.13;3.72;;;16.60;94.40;;;;;;5044552;28;20539;-64